ENTC/TOS METAR and TAF weather

Enter ICAO airport designator
Station Type Date Time Source
ENTC METAR 2019/12/13 14:20 UTC NOAA

ENTC 131420Z 26006KT CAVOK 00/M04 Q0989 NOSIG RMK WIND 2600FT 17013KT


Station Type Date Time Source
ENTC Decoded METAR 2019/12/13 14:20 UTC NOAA

Tromso / Langnes, Norway (ENTC) 69-41N 018-55E 10M
Dec 13, 2019 - 09:20 AM EST / 2019.12.13 1420 UTC
Wind: from the W (260 degrees) at 7 MPH (6 KT):0
Visibility: greater than 7 mile(s):0
Temperature: 32 F (0 C)
Windchill: 24 F (-4 C):1
Dew Point: 24 F (-4 C)
Relative Humidity: 74%
Pressure (altimeter): 29.21 in. Hg (0989 hPa)
ob: ENTC 131420Z 26006KT CAVOK 00/M04 Q0989 NOSIG RMK WIND 2600FT 17013KT
cycle: 14

Station Type Date Time Source
ENTC TAF 2019/12/13 12:57 UTC NOAA

TAF ENTC 131100Z 1312/1412 23009KT CAVOK

Example: see airport list